X  Close Metar Aviation Weather Data     KRYV Watertown Municipal Airport
Temperature
-4°F Temperature
-9°F Dewpoint
77% Humidity



Wind
0 MPH
0 KM/H
0 M/S
0 KTS



Calm
North
Current Conditions

Clear Clear
Pressure 1034.92 (hPa) - 30.56 (inHg)
Visibility 10 (mile) - 16.1 (km)
Airport
Airport-code KRYV

Location: Watertown Municipal Airport
Distance: 8 (mi)

Metar:
KRYV 210835Z AUTO 00000KT 10SM CLR M20/M23 A3056 RMK AO2 T12051231

Time: 21-01-2022 02:35 CST